createdAt,value
2017-06-29T00:00:19.452Z,935.85
2017-06-29T00:01:19.457Z,935.85
2017-06-29T00:02:19.566Z,935.79
2017-06-29T00:03:19.575Z,935.79
2017-06-29T00:04:19.419Z,935.77
2017-06-29T00:05:19.414Z,935.74
2017-06-29T00:06:19.409Z,935.76
2017-06-29T00:07:19.405Z,935.77
2017-06-29T00:08:19.470Z,935.78
2017-06-29T00:09:19.528Z,935.72
2017-06-29T00:10:19.500Z,935.68
2017-06-29T00:11:19.523Z,935.65
2017-06-29T00:12:19.381Z,935.65
2017-06-29T00:13:19.378Z,935.62
2017-06-29T00:14:19.376Z,935.59
2017-06-29T00:15:19.366Z,935.61
2017-06-29T00:16:19.361Z,935.64
2017-06-29T00:17:19.429Z,935.68
2017-06-29T00:18:19.451Z,935.69
2017-06-29T00:19:19.346Z,935.69
2017-06-29T00:20:19.343Z,935.71
2017-06-29T00:21:19.341Z,935.72
2017-06-29T00:22:19.331Z,935.74
2017-06-29T00:23:19.327Z,935.73
2017-06-29T00:24:19.323Z,935.69
2017-06-29T00:25:19.317Z,935.66
2017-06-29T00:26:19.336Z,935.59
2017-06-29T00:27:19.307Z,935.57
2017-06-29T00:28:19.303Z,935.59
2017-06-29T00:29:19.298Z,935.6
2017-06-29T00:30:19.292Z,935.55
2017-06-29T00:31:19.295Z,935.63
2017-06-29T00:32:19.305Z,935.65
2017-06-29T00:33:19.278Z,935.68
2017-06-29T00:34:19.273Z,935.68
2017-06-29T00:35:19.270Z,935.68
2017-06-29T00:36:19.265Z,935.7
2017-06-29T00:37:19.259Z,935.66
2017-06-29T00:38:19.271Z,935.65
2017-06-29T00:39:19.249Z,935.62
2017-06-29T00:40:19.245Z,935.64
2017-06-29T00:41:19.257Z,935.67
2017-06-29T00:42:19.239Z,935.63
2017-06-29T00:43:19.230Z,935.61
2017-06-29T00:44:19.225Z,935.62
2017-06-29T00:45:19.220Z,935.61
2017-06-29T00:46:19.216Z,935.59
2017-06-29T00:47:19.211Z,935.59
2017-06-29T00:48:19.206Z,935.59
2017-06-29T00:49:19.202Z,935.54
2017-06-29T00:50:19.208Z,935.58
2017-06-29T00:51:19.210Z,935.54
2017-06-29T00:52:19.187Z,935.55
2017-06-29T00:53:19.182Z,935.53
2017-06-29T00:54:19.178Z,935.51
2017-06-29T00:55:19.173Z,935.49
2017-06-29T00:56:19.168Z,935.46
2017-06-29T00:57:19.164Z,935.47
2017-06-29T00:58:19.159Z,935.43
2017-06-29T00:59:19.153Z,935.45
2017-06-29T01:00:19.149Z,935.45
2017-06-29T01:01:19.164Z,935.4
2017-06-29T01:02:19.141Z,935.4
2017-06-29T01:03:19.135Z,935.42
2017-06-29T01:04:19.131Z,935.39
2017-06-29T01:05:19.176Z,935.46
2017-06-29T01:06:19.123Z,935.45
2017-06-29T01:07:19.117Z,935.46
2017-06-29T01:08:19.113Z,935.47
2017-06-29T01:09:19.108Z,935.47
2017-06-29T01:10:19.116Z,935.42
2017-06-29T01:11:19.098Z,935.39
2017-06-29T01:12:19.095Z,935.35
2017-06-29T01:13:19.089Z,935.32
2017-06-29T01:14:19.083Z,935.32
2017-06-29T01:15:19.078Z,935.32
2017-06-29T01:16:19.086Z,935.31
2017-06-29T01:17:19.072Z,935.31
2017-06-29T01:18:19.066Z,935.34
2017-06-29T01:19:19.061Z,935.29
2017-06-29T01:20:19.057Z,935.28
2017-06-29T01:21:19.051Z,935.3
2017-06-29T01:22:19.048Z,935.28
2017-06-29T01:23:19.046Z,935.26
2017-06-29T01:24:19.040Z,935.26
2017-06-29T01:25:19.045Z,935.28
2017-06-29T01:26:19.032Z,935.27
2017-06-29T01:27:19.026Z,935.28
2017-06-29T01:28:19.021Z,935.26
2017-06-29T01:29:19.015Z,935.27
2017-06-29T01:30:19.032Z,935.26
2017-06-29T01:31:19.007Z,935.27
2017-06-29T01:32:19.001Z,935.21
2017-06-29T01:33:18.999Z,935.23
2017-06-29T01:34:18.995Z,935.16
2017-06-29T01:35:18.989Z,935.19
2017-06-29T01:36:18.985Z,935.13
2017-06-29T01:37:18.979Z,935.12
2017-06-29T01:38:18.983Z,935.06
2017-06-29T01:39:18.982Z,935.05
2017-06-29T01:40:18.966Z,935.04
2017-06-29T01:41:18.963Z,935.02
2017-06-29T01:42:18.969Z,935
2017-06-29T01:43:18.955Z,934.98
2017-06-29T01:44:18.961Z,935.03
2017-06-29T01:45:18.947Z,935
2017-06-29T01:46:18.942Z,934.96
2017-06-29T01:47:18.937Z,935.03
2017-06-29T01:48:18.933Z,934.99
2017-06-29T01:49:18.930Z,935
2017-06-29T01:50:18.923Z,935
2017-06-29T01:51:18.919Z,935.01
2017-06-29T01:52:18.915Z,934.95
2017-06-29T01:53:18.914Z,934.95
2017-06-29T01:54:18.918Z,934.91
2017-06-29T01:55:18.925Z,934.91
2017-06-29T01:56:18.899Z,934.88
2017-06-29T01:57:18.904Z,934.85
2017-06-29T01:58:18.889Z,934.79
2017-06-29T01:59:18.886Z,934.83
2017-06-29T02:00:18.883Z,934.8
2017-06-29T02:01:18.876Z,934.85
2017-06-29T02:02:18.872Z,934.76
2017-06-29T02:03:18.868Z,934.76
2017-06-29T02:04:18.864Z,934.72
2017-06-29T02:05:18.859Z,934.73
2017-06-29T02:06:18.857Z,934.74
2017-06-29T02:07:18.857Z,934.71
2017-06-29T02:08:18.847Z,934.7
2017-06-29T02:09:18.843Z,934.69
2017-06-29T02:10:18.839Z,934.71
2017-06-29T02:11:18.834Z,934.71
2017-06-29T02:12:18.830Z,934.75
2017-06-29T02:13:18.826Z,934.76
2017-06-29T02:14:18.822Z,934.71
2017-06-29T02:15:18.837Z,934.7
2017-06-29T02:16:18.813Z,934.74
2017-06-29T02:17:18.809Z,934.7
2017-06-29T02:18:18.820Z,934.65
2017-06-29T02:19:18.799Z,934.59
2017-06-29T02:20:18.795Z,934.58
2017-06-29T02:21:18.793Z,934.51
2017-06-29T02:22:18.789Z,934.51
2017-06-29T02:23:18.784Z,934.53
2017-06-29T02:24:18.780Z,934.55
2017-06-29T02:25:18.774Z,934.52
2017-06-29T02:26:18.771Z,934.54
2017-06-29T02:27:18.773Z,934.55
2017-06-29T02:28:18.764Z,934.51
2017-06-29T02:29:18.758Z,934.49
2017-06-29T02:30:18.754Z,934.48
2017-06-29T02:31:18.750Z,934.45
2017-06-29T02:32:18.746Z,934.45
2017-06-29T02:33:18.741Z,934.43
2017-06-29T02:34:18.736Z,934.4
2017-06-29T02:35:18.735Z,934.39
2017-06-29T02:36:18.729Z,934.37
2017-06-29T02:37:18.725Z,934.37
2017-06-29T02:38:18.742Z,934.33
2017-06-29T02:39:18.736Z,934.32
2017-06-29T02:40:18.712Z,934.3
2017-06-29T02:41:18.709Z,934.25
2017-06-29T02:42:18.704Z,934.24
2017-06-29T02:43:18.700Z,934.25
2017-06-29T02:44:18.696Z,934.21
2017-06-29T02:45:18.691Z,934.21
2017-06-29T02:46:18.687Z,934.21
2017-06-29T02:47:18.690Z,934.21
2017-06-29T02:48:18.680Z,934.24
2017-06-29T02:49:18.692Z,934.25
2017-06-29T02:50:18.670Z,934.26
2017-06-29T02:51:18.667Z,934.22
2017-06-29T02:52:18.663Z,934.29
2017-06-29T02:53:18.659Z,934.31
2017-06-29T02:54:18.670Z,934.32
2017-06-29T02:55:18.651Z,934.37
2017-06-29T02:56:18.646Z,934.39
2017-06-29T02:57:18.644Z,934.41
2017-06-29T02:58:18.643Z,934.4
2017-06-29T02:59:18.637Z,934.4
2017-06-29T03:00:18.630Z,934.37
2017-06-29T03:01:18.626Z,934.38
2017-06-29T03:02:18.624Z,934.4
2017-06-29T03:03:18.618Z,934.39
2017-06-29T03:04:18.616Z,934.39
2017-06-29T03:05:18.610Z,934.38
2017-06-29T03:06:18.607Z,934.37
2017-06-29T03:07:18.602Z,934.39
2017-06-29T03:08:18.598Z,934.4
2017-06-29T03:09:18.594Z,934.39
2017-06-29T03:10:18.590Z,934.35
2017-06-29T03:11:18.585Z,934.38
2017-06-29T03:12:18.631Z,934.36
2017-06-29T03:13:18.577Z,934.34
2017-06-29T03:14:18.574Z,934.36
2017-06-29T03:15:18.569Z,934.37
2017-06-29T03:16:18.565Z,934.33
2017-06-29T03:17:18.563Z,934.35
2017-06-29T03:18:18.567Z,934.33
2017-06-29T03:19:18.554Z,934.33
2017-06-29T03:20:18.550Z,934.37
2017-06-29T03:21:18.545Z,934.35
2017-06-29T03:22:18.542Z,934.36
2017-06-29T03:23:18.539Z,934.34
2017-06-29T03:24:18.534Z,934.32
2017-06-29T03:25:18.529Z,934.32
2017-06-29T03:26:18.525Z,934.32
2017-06-29T03:27:18.522Z,934.26
2017-06-29T03:28:18.519Z,934.27
2017-06-29T03:29:18.514Z,934.27
2017-06-29T03:30:18.510Z,934.24
2017-06-29T03:31:18.507Z,934.22
2017-06-29T03:32:18.502Z,934.23
2017-06-29T03:33:18.499Z,934.17
2017-06-29T03:34:18.503Z,934.11
2017-06-29T03:35:18.491Z,934.16
2017-06-29T03:36:18.486Z,934.11
2017-06-29T03:37:18.481Z,934.1
2017-06-29T03:38:18.478Z,934.11
2017-06-29T03:39:18.474Z,934.1
2017-06-29T03:40:18.470Z,934.14
2017-06-29T03:41:18.465Z,934.1
2017-06-29T03:42:18.461Z,934.11
2017-06-29T03:43:18.457Z,934.11
2017-06-29T03:44:18.454Z,934.15
2017-06-29T03:45:18.461Z,934.14
2017-06-29T03:46:18.447Z,934.12
2017-06-29T03:47:18.441Z,934.15
2017-06-29T03:48:18.438Z,934.18
2017-06-29T03:49:18.434Z,934.14
2017-06-29T03:50:18.450Z,934.2
2017-06-29T03:51:18.426Z,934.16
2017-06-29T03:52:18.423Z,934.16
2017-06-29T03:53:18.418Z,934.16
2017-06-29T03:54:18.413Z,934.15
2017-06-29T03:55:18.410Z,934.12
2017-06-29T03:56:18.405Z,934.13
2017-06-29T03:57:18.403Z,934.15
2017-06-29T03:58:18.404Z,934.11
2017-06-29T03:59:18.395Z,934.1
2017-06-29T04:00:18.391Z,934.11
2017-06-29T04:01:18.387Z,934.1
2017-06-29T04:02:18.382Z,934.04
2017-06-29T04:03:18.379Z,934.07
2017-06-29T04:04:18.376Z,934.09
2017-06-29T04:05:18.372Z,934.05
2017-06-29T04:06:18.367Z,934.03
2017-06-29T04:07:18.364Z,934.03
2017-06-29T04:08:18.360Z,934.01
2017-06-29T04:09:18.358Z,934.01
2017-06-29T04:10:18.351Z,934.02
2017-06-29T04:11:18.349Z,934.02
2017-06-29T04:12:18.345Z,934.01
2017-06-29T04:13:18.340Z,933.97
2017-06-29T04:14:18.336Z,934
2017-06-29T04:15:18.333Z,933.99
2017-06-29T04:16:18.328Z,934.03
2017-06-29T04:17:18.324Z,934.07
2017-06-29T04:18:18.321Z,934.06
2017-06-29T04:19:18.320Z,934.09
2017-06-29T04:20:18.312Z,934.07
2017-06-29T04:21:18.329Z,934.05
2017-06-29T04:22:18.305Z,934.07
2017-06-29T04:23:18.301Z,934.07
2017-06-29T04:24:18.297Z,934.07
2017-06-29T04:25:18.295Z,934.12
2017-06-29T04:26:18.290Z,934.12
2017-06-29T04:27:18.286Z,934.12
2017-06-29T04:28:18.283Z,934.17
2017-06-29T04:29:18.277Z,934.15
2017-06-29T04:30:18.278Z,934.19
2017-06-29T04:31:18.271Z,934.22
2017-06-29T04:32:18.266Z,934.24
2017-06-29T04:33:18.262Z,934.23
2017-06-29T04:34:18.260Z,934.26
2017-06-29T04:35:18.255Z,934.31
2017-06-29T04:36:18.251Z,934.29
2017-06-29T04:37:18.249Z,934.36
2017-06-29T04:38:18.242Z,934.4
2017-06-29T04:39:18.239Z,934.35
2017-06-29T04:40:18.238Z,934.39
2017-06-29T04:41:18.245Z,934.4
2017-06-29T04:42:18.227Z,934.39
2017-06-29T04:43:18.223Z,934.43
2017-06-29T04:44:18.221Z,934.52
2017-06-29T04:45:18.268Z,934.51
2017-06-29T04:46:18.212Z,934.52
2017-06-29T04:47:18.208Z,934.49
2017-06-29T04:48:18.204Z,934.56
2017-06-29T04:49:18.200Z,934.59
2017-06-29T04:50:18.197Z,934.56
2017-06-29T04:51:18.193Z,934.58
2017-06-29T04:52:18.189Z,934.58
2017-06-29T04:53:18.185Z,934.6
2017-06-29T04:54:18.182Z,934.6
2017-06-29T04:55:18.178Z,934.58
2017-06-29T04:56:18.174Z,934.57
2017-06-29T04:57:18.172Z,934.59
2017-06-29T04:58:18.168Z,934.56
2017-06-29T04:59:18.165Z,934.54
2017-06-29T05:00:18.160Z,934.58
2017-06-29T05:01:18.162Z,934.51
2017-06-29T05:02:18.152Z,934.54
2017-06-29T05:03:18.149Z,934.5
2017-06-29T05:04:18.145Z,934.51
2017-06-29T05:05:18.141Z,934.48
2017-06-29T05:06:18.137Z,934.55
2017-06-29T05:07:18.132Z,934.49
2017-06-29T05:08:18.129Z,934.52
2017-06-29T05:09:18.127Z,934.54
2017-06-29T05:10:18.122Z,934.56
2017-06-29T05:11:18.117Z,934.54
2017-06-29T05:12:18.128Z,934.55
2017-06-29T05:13:18.112Z,934.56
2017-06-29T05:14:18.107Z,934.51
2017-06-29T05:15:18.102Z,934.52
2017-06-29T05:16:18.098Z,934.5
2017-06-29T05:17:18.096Z,934.47
2017-06-29T05:18:18.090Z,934.45
2017-06-29T05:19:18.088Z,934.47
2017-06-29T05:20:18.083Z,934.48
2017-06-29T05:21:18.080Z,934.46
2017-06-29T05:22:18.076Z,934.44
2017-06-29T05:23:18.072Z,934.44
2017-06-29T05:24:18.070Z,934.45
2017-06-29T05:25:18.066Z,934.41
2017-06-29T05:26:18.061Z,934.43
2017-06-29T05:27:18.056Z,934.42
2017-06-29T05:28:18.054Z,934.39
2017-06-29T05:29:18.050Z,934.4
2017-06-29T05:30:18.045Z,934.39
2017-06-29T05:31:18.043Z,934.4
2017-06-29T05:32:18.038Z,934.42
2017-06-29T05:33:18.057Z,934.42
2017-06-29T05:34:18.031Z,934.44
2017-06-29T05:35:18.028Z,934.47
2017-06-29T05:36:18.023Z,934.45
2017-06-29T05:37:18.019Z,934.47
2017-06-29T05:38:18.015Z,934.48
2017-06-29T05:39:18.026Z,934.47
2017-06-29T05:40:18.010Z,934.45
2017-06-29T05:41:18.005Z,934.44
2017-06-29T05:42:18.001Z,934.49
2017-06-29T05:43:17.997Z,934.46
2017-06-29T05:44:17.992Z,934.48
2017-06-29T05:45:17.990Z,934.46
2017-06-29T05:46:17.986Z,934.47
2017-06-29T05:47:17.982Z,934.45
2017-06-29T05:48:17.978Z,934.45
2017-06-29T05:49:17.974Z,934.47
2017-06-29T05:50:17.970Z,934.47
2017-06-29T05:51:17.967Z,934.46
2017-06-29T05:52:17.963Z,934.49
2017-06-29T05:53:17.961Z,934.47
2017-06-29T05:54:17.957Z,934.47
2017-06-29T05:55:17.952Z,934.45
2017-06-29T05:56:17.949Z,934.45
2017-06-29T05:57:17.945Z,934.44
2017-06-29T05:58:17.941Z,934.41
2017-06-29T05:59:17.944Z,934.4
2017-06-29T06:00:17.933Z,934.41
2017-06-29T06:01:17.931Z,934.41
2017-06-29T06:02:17.930Z,934.42
2017-06-29T06:03:17.921Z,934.41
2017-06-29T06:04:17.920Z,934.41
2017-06-29T06:05:17.916Z,934.34
2017-06-29T06:06:17.911Z,934.35
2017-06-29T06:07:17.907Z,934.37
2017-06-29T06:08:17.906Z,934.36
2017-06-29T06:09:17.902Z,934.36
2017-06-29T06:10:17.896Z,934.35
2017-06-29T06:11:17.894Z,934.36
2017-06-29T06:12:17.890Z,934.34
2017-06-29T06:13:17.886Z,934.33
2017-06-29T06:14:17.882Z,934.31
2017-06-29T06:15:17.879Z,934.26
2017-06-29T06:16:17.875Z,934.25
2017-06-29T06:17:17.872Z,934.25
2017-06-29T06:18:17.869Z,934.25
2017-06-29T06:19:17.866Z,934.24
2017-06-29T06:20:17.862Z,934.26
2017-06-29T06:21:17.860Z,934.23
2017-06-29T06:22:17.854Z,934.22
2017-06-29T06:23:17.852Z,934.19
2017-06-29T06:24:17.847Z,934.18
2017-06-29T06:25:17.855Z,934.19
2017-06-29T06:26:17.839Z,934.21
2017-06-29T06:27:17.839Z,934.23
2017-06-29T06:28:17.834Z,934.14
2017-06-29T06:29:17.830Z,934.2
2017-06-29T06:30:17.827Z,934.2
2017-06-29T06:31:17.825Z,934.21
2017-06-29T06:32:17.820Z,934.22
2017-06-29T06:33:17.819Z,934.22
2017-06-29T06:34:17.820Z,934.23
2017-06-29T06:35:17.810Z,934.21
2017-06-29T06:36:17.808Z,934.23
2017-06-29T06:37:17.804Z,934.23
2017-06-29T06:38:17.801Z,934.25
2017-06-29T06:39:17.797Z,934.24
2017-06-29T06:40:17.798Z,934.23
2017-06-29T06:41:17.791Z,934.25
2017-06-29T06:42:17.787Z,934.27
2017-06-29T06:43:17.783Z,934.29
2017-06-29T06:44:17.781Z,934.28
2017-06-29T06:45:17.777Z,934.3
2017-06-29T06:46:17.773Z,934.32
2017-06-29T06:47:17.769Z,934.31
2017-06-29T06:48:17.766Z,934.28
2017-06-29T06:49:17.765Z,934.3
2017-06-29T06:50:17.758Z,934.32
2017-06-29T06:51:17.756Z,934.35
2017-06-29T06:52:17.753Z,934.33
2017-06-29T06:53:17.748Z,934.31
2017-06-29T06:54:17.744Z,934.35
2017-06-29T06:55:17.742Z,934.33
2017-06-29T06:56:17.738Z,934.27
2017-06-29T06:57:17.734Z,934.3
2017-06-29T06:58:17.730Z,934.3
2017-06-29T06:59:17.726Z,934.31
2017-06-29T07:00:17.723Z,934.27
2017-06-29T07:01:17.721Z,934.28
2017-06-29T07:02:17.715Z,934.26
2017-06-29T07:03:17.718Z,934.25
2017-06-29T07:04:17.713Z,934.26
2017-06-29T07:05:17.705Z,934.27
2017-06-29T07:06:17.701Z,934.24
2017-06-29T07:07:17.697Z,934.22
2017-06-29T07:08:17.693Z,934.22
2017-06-29T07:09:17.690Z,934.19
2017-06-29T07:10:17.687Z,934.25
2017-06-29T07:11:17.683Z,934.26
2017-06-29T07:12:17.679Z,934.21
2017-06-29T07:13:17.675Z,934.2
2017-06-29T07:14:17.682Z,934.2
2017-06-29T07:15:17.687Z,934.17
2017-06-29T07:16:17.664Z,934.2
2017-06-29T07:17:17.662Z,934.2
2017-06-29T07:18:17.662Z,934.14
2017-06-29T07:19:17.655Z,934.23
2017-06-29T07:20:17.651Z,934.24
2017-06-29T07:21:17.649Z,934.25
2017-06-29T07:22:17.649Z,934.25
2017-06-29T07:23:17.640Z,934.24
2017-06-29T07:24:17.638Z,934.24
2017-06-29T07:25:17.634Z,934.24
2017-06-29T07:26:17.630Z,934.27
2017-06-29T07:27:17.627Z,934.27
2017-06-29T07:28:17.624Z,934.32
2017-06-29T07:29:17.637Z,934.29
2017-06-29T07:30:17.636Z,934.32
2017-06-29T07:31:17.613Z,934.29
2017-06-29T07:32:17.611Z,934.29
2017-06-29T07:33:17.606Z,934.32
2017-06-29T07:34:17.602Z,934.32
2017-06-29T07:35:17.599Z,934.31
2017-06-29T07:36:17.596Z,934.33
2017-06-29T07:37:17.592Z,934.32
2017-06-29T07:38:17.589Z,934.33
2017-06-29T07:39:17.585Z,934.33
2017-06-29T07:40:17.582Z,934.34
2017-06-29T07:41:17.579Z,934.33
2017-06-29T07:42:17.575Z,934.33
2017-06-29T07:43:17.571Z,934.37
2017-06-29T07:44:17.569Z,934.34
2017-06-29T07:45:17.565Z,934.37
2017-06-29T07:46:17.562Z,934.35
2017-06-29T07:47:17.573Z,934.35
2017-06-29T07:48:17.555Z,934.38
2017-06-29T07:49:17.552Z,934.37
2017-06-29T07:50:17.549Z,934.36
2017-06-29T07:51:17.549Z,934.4
2017-06-29T07:52:17.543Z,934.36
2017-06-29T07:53:17.540Z,934.39
2017-06-29T07:54:17.537Z,934.37
2017-06-29T07:55:17.534Z,934.41
2017-06-29T07:56:17.529Z,934.4
2017-06-29T07:57:17.527Z,934.41
2017-06-29T07:58:17.539Z,934.43
2017-06-29T07:59:17.520Z,934.38
2017-06-29T08:00:17.518Z,934.35
2017-06-29T08:01:17.514Z,934.39
2017-06-29T08:02:17.511Z,934.43
2017-06-29T08:03:17.507Z,934.43
2017-06-29T08:04:17.505Z,934.42
2017-06-29T08:05:17.501Z,934.43
2017-06-29T08:06:17.499Z,934.44
2017-06-29T08:07:17.495Z,934.43
2017-06-29T08:08:17.493Z,934.45
2017-06-29T08:09:17.489Z,934.46
2017-06-29T08:10:17.485Z,934.44
2017-06-29T08:11:17.482Z,934.47
2017-06-29T08:12:17.481Z,934.44
2017-06-29T08:13:17.483Z,934.47
2017-06-29T08:14:17.473Z,934.5
2017-06-29T08:15:17.469Z,934.47
2017-06-29T08:16:17.469Z,934.52
2017-06-29T08:17:17.460Z,934.51
2017-06-29T08:18:17.458Z,934.5
2017-06-29T08:19:17.456Z,934.49
2017-06-29T08:20:17.453Z,934.54
2017-06-29T08:21:17.451Z,934.49
2017-06-29T08:22:17.446Z,934.49
2017-06-29T08:23:17.444Z,934.46
2017-06-29T08:24:17.458Z,934.47
2017-06-29T08:25:17.435Z,934.49
2017-06-29T08:26:17.432Z,934.48
2017-06-29T08:27:17.429Z,934.52
2017-06-29T08:28:17.426Z,934.52
2017-06-29T08:29:17.426Z,934.53
2017-06-29T08:30:17.420Z,934.58
2017-06-29T08:31:17.416Z,934.61
2017-06-29T08:32:17.412Z,934.54
2017-06-29T08:33:17.408Z,934.61
2017-06-29T08:34:17.407Z,934.61
2017-06-29T08:35:17.402Z,934.57
2017-06-29T08:36:17.398Z,934.6
2017-06-29T08:37:17.396Z,934.6
2017-06-29T08:38:17.392Z,934.59
2017-06-29T08:39:17.388Z,934.57
2017-06-29T08:40:17.385Z,934.6
2017-06-29T08:41:17.383Z,934.59
2017-06-29T08:42:17.378Z,934.61
2017-06-29T08:43:17.374Z,934.6
2017-06-29T08:44:17.377Z,934.62
2017-06-29T08:45:17.369Z,934.65
2017-06-29T08:46:17.365Z,934.67
2017-06-29T08:47:17.362Z,934.64
2017-06-29T08:48:17.358Z,934.63
2017-06-29T08:49:17.356Z,934.61
2017-06-29T08:50:17.351Z,934.61
2017-06-29T08:51:17.349Z,934.63
2017-06-29T08:52:17.344Z,934.6
2017-06-29T08:53:17.341Z,934.59
2017-06-29T08:54:17.338Z,934.61
2017-06-29T08:55:17.340Z,934.63
2017-06-29T08:56:17.332Z,934.64
2017-06-29T08:57:17.329Z,934.68
2017-06-29T08:58:17.325Z,934.66
2017-06-29T08:59:17.321Z,934.67
2017-06-29T09:00:17.318Z,934.69
2017-06-29T09:01:17.314Z,934.68
2017-06-29T09:02:17.311Z,934.67
2017-06-29T09:03:17.308Z,934.71
2017-06-29T09:04:17.306Z,934.7
2017-06-29T09:05:17.301Z,934.69
2017-06-29T09:06:17.304Z,934.73
2017-06-29T09:07:17.295Z,934.76
2017-06-29T09:08:17.293Z,934.75
2017-06-29T09:09:17.290Z,934.77
2017-06-29T09:10:17.287Z,934.73
2017-06-29T09:11:17.283Z,934.77
2017-06-29T09:12:17.279Z,934.75
2017-06-29T09:13:17.279Z,934.8
2017-06-29T09:14:17.273Z,934.77
2017-06-29T09:15:17.272Z,934.76
2017-06-29T09:16:17.266Z,934.79
2017-06-29T09:17:17.264Z,934.77
2017-06-29T09:18:17.262Z,934.77
2017-06-29T09:19:17.258Z,934.79
2017-06-29T09:20:17.255Z,934.83
2017-06-29T09:21:17.252Z,934.84
2017-06-29T09:22:17.249Z,934.83
2017-06-29T09:23:17.246Z,934.84
2017-06-29T09:24:17.243Z,934.84
2017-06-29T09:25:17.240Z,934.82
2017-06-29T09:26:17.238Z,934.85
2017-06-29T09:27:17.239Z,934.86
2017-06-29T09:28:17.234Z,934.82
2017-06-29T09:29:17.232Z,934.85
2017-06-29T09:30:17.235Z,934.84
2017-06-29T09:31:17.250Z,934.86
2017-06-29T09:32:17.225Z,934.88
2017-06-29T09:33:17.223Z,934.84
2017-06-29T09:34:17.220Z,934.84
2017-06-29T09:35:17.219Z,934.9
2017-06-29T09:36:17.216Z,934.87
2017-06-29T09:37:17.215Z,934.89
2017-06-29T09:38:17.234Z,934.89
2017-06-29T09:39:17.230Z,934.89
2017-06-29T09:40:17.211Z,934.88
2017-06-29T09:41:17.208Z,934.9
2017-06-29T09:42:17.216Z,934.92
2017-06-29T09:43:17.206Z,934.93
2017-06-29T09:44:17.205Z,934.96
2017-06-29T09:45:17.204Z,934.95
2017-06-29T09:46:17.202Z,934.95
2017-06-29T09:47:17.199Z,934.98
2017-06-29T09:48:17.197Z,935.03
2017-06-29T09:49:17.192Z,935.01
2017-06-29T09:50:17.211Z,935.06
2017-06-29T09:51:17.190Z,935.07
2017-06-29T09:52:17.187Z,935.1
2017-06-29T09:53:17.188Z,935.1
2017-06-29T09:54:17.183Z,935.1
2017-06-29T09:55:17.182Z,935.1
2017-06-29T09:56:17.179Z,935.1
2017-06-29T09:57:17.176Z,935.14
2017-06-29T09:58:17.175Z,935.13
2017-06-29T09:59:17.174Z,935.12
2017-06-29T10:00:17.169Z,935.13
2017-06-29T10:01:17.167Z,935.1
2017-06-29T10:02:17.165Z,935.14
2017-06-29T10:03:17.162Z,935.16
2017-06-29T10:04:17.210Z,935.19
2017-06-29T10:05:17.157Z,935.17
2017-06-29T10:06:17.155Z,935.2
2017-06-29T10:07:17.151Z,935.26
2017-06-29T10:08:17.149Z,935.23
2017-06-29T10:09:17.148Z,935.28
2017-06-29T10:10:17.146Z,935.26
2017-06-29T10:11:17.141Z,935.32
2017-06-29T10:12:17.139Z,935.29
2017-06-29T10:13:17.137Z,935.29
2017-06-29T10:14:17.135Z,935.29
2017-06-29T10:15:17.142Z,935.32
2017-06-29T10:16:17.129Z,935.31
2017-06-29T10:17:17.127Z,935.29
2017-06-29T10:18:17.122Z,935.28
2017-06-29T10:19:17.121Z,935.3
2017-06-29T10:20:17.120Z,935.28
2017-06-29T10:21:17.117Z,935.3
2017-06-29T10:22:17.114Z,935.32
2017-06-29T10:23:17.112Z,935.33
2017-06-29T10:24:17.108Z,935.34
2017-06-29T10:25:17.104Z,935.34
2017-06-29T10:26:17.102Z,935.33
2017-06-29T10:27:17.100Z,935.36
2017-06-29T10:28:17.097Z,935.39
2017-06-29T10:29:17.092Z,935.43
2017-06-29T10:30:17.090Z,935.45
2017-06-29T10:31:17.087Z,935.49
2017-06-29T10:32:17.085Z,935.47
2017-06-29T10:33:17.081Z,935.5
2017-06-29T10:34:17.078Z,935.5
2017-06-29T10:35:17.076Z,935.55
2017-06-29T10:36:17.072Z,935.56
2017-06-29T10:37:17.071Z,935.55
2017-06-29T10:38:17.078Z,935.52
2017-06-29T10:39:17.065Z,935.53
2017-06-29T10:40:17.061Z,935.55
2017-06-29T10:41:17.058Z,935.57
2017-06-29T10:42:17.054Z,935.58
2017-06-29T10:43:17.052Z,935.56
2017-06-29T10:44:17.048Z,935.55
2017-06-29T10:45:17.046Z,935.62
2017-06-29T10:46:17.043Z,935.6
2017-06-29T10:47:17.039Z,935.58
2017-06-29T10:48:17.037Z,935.56
2017-06-29T10:49:17.033Z,935.58
2017-06-29T10:50:17.032Z,935.58
2017-06-29T10:51:17.029Z,935.58
2017-06-29T10:52:17.071Z,935.59
2017-06-29T10:53:17.024Z,935.62
2017-06-29T10:54:17.019Z,935.63
2017-06-29T10:55:17.035Z,935.64
2017-06-29T10:56:17.012Z,935.69
2017-06-29T10:57:17.011Z,935.7
2017-06-29T10:58:17.006Z,935.72
2017-06-29T10:59:17.002Z,935.7
2017-06-29T11:00:16.999Z,935.74
2017-06-29T11:01:16.996Z,935.74
2017-06-29T11:02:16.992Z,935.79
2017-06-29T11:03:17.016Z,935.79
2017-06-29T11:04:16.987Z,935.77
2017-06-29T11:05:16.984Z,935.8
2017-06-29T11:06:16.980Z,935.81
2017-06-29T11:07:16.979Z,935.84
2017-06-29T11:08:16.973Z,935.85
2017-06-29T11:09:16.972Z,935.85
2017-06-29T11:10:16.966Z,935.85
2017-06-29T11:11:16.969Z,935.87
2017-06-29T11:12:16.960Z,935.89
2017-06-29T11:13:16.959Z,935.88
2017-06-29T11:14:16.955Z,935.87
2017-06-29T11:15:16.951Z,935.88
2017-06-29T11:16:16.948Z,935.9
2017-06-29T11:17:16.946Z,935.9
2017-06-29T11:18:16.942Z,935.89
2017-06-29T11:19:16.941Z,935.89
2017-06-29T11:20:16.936Z,935.91
2017-06-29T11:21:16.933Z,935.92
2017-06-29T11:22:16.931Z,935.97
2017-06-29T11:23:16.929Z,935.96
2017-06-29T11:24:16.925Z,935.98
2017-06-29T11:25:16.922Z,936.03
2017-06-29T11:26:16.919Z,936.02
2017-06-29T11:27:16.914Z,935.99
2017-06-29T11:28:16.928Z,936.03
2017-06-29T11:29:16.924Z,936.02
2017-06-29T11:30:16.907Z,936.03
2017-06-29T11:31:16.903Z,936.05
2017-06-29T11:32:16.900Z,936.04
2017-06-29T11:33:16.898Z,936.06
2017-06-29T11:34:16.896Z,936.07
2017-06-29T11:35:16.891Z,936.1
2017-06-29T11:36:16.888Z,936.12
2017-06-29T11:37:16.885Z,936.16
2017-06-29T11:38:16.882Z,936.2
2017-06-29T11:39:16.881Z,936.2
2017-06-29T11:40:16.877Z,936.21
2017-06-29T11:41:16.912Z,936.2
2017-06-29T11:42:16.871Z,936.22
2017-06-29T11:43:16.868Z,936.21
2017-06-29T11:44:16.865Z,936.23
2017-06-29T11:45:16.863Z,936.23
2017-06-29T11:46:16.859Z,936.24
2017-06-29T11:47:16.857Z,936.25
2017-06-29T11:48:16.855Z,936.25
2017-06-29T11:49:16.851Z,936.28
2017-06-29T11:50:16.849Z,936.33
2017-06-29T11:51:16.848Z,936.39
2017-06-29T11:52:16.843Z,936.43
2017-06-29T11:53:16.839Z,936.4
2017-06-29T11:54:16.837Z,936.38
2017-06-29T11:55:16.835Z,936.35
2017-06-29T11:56:16.832Z,936.37
2017-06-29T11:57:16.878Z,936.37
2017-06-29T11:58:16.826Z,936.37
2017-06-29T11:59:16.823Z,936.36
2017-06-29T12:00:16.822Z,936.36
2017-06-29T12:01:16.819Z,936.35
2017-06-29T12:02:16.837Z,936.35
2017-06-29T12:03:16.813Z,936.39
2017-06-29T12:04:16.810Z,936.37
2017-06-29T12:05:16.807Z,936.37
2017-06-29T12:06:16.804Z,936.42
2017-06-29T12:07:16.803Z,936.45
2017-06-29T12:08:16.799Z,936.47
2017-06-29T12:09:16.810Z,936.48
2017-06-29T12:10:16.796Z,936.44
2017-06-29T12:11:16.791Z,936.46
2017-06-29T12:12:16.789Z,936.44
2017-06-29T12:13:16.786Z,936.46
2017-06-29T12:14:16.785Z,936.49
2017-06-29T12:15:16.804Z,936.47
2017-06-29T12:16:16.777Z,936.49
2017-06-29T12:17:16.775Z,936.56
2017-06-29T12:18:16.774Z,936.5
2017-06-29T12:19:16.769Z,936.51
2017-06-29T12:20:16.765Z,936.55
2017-06-29T12:21:16.764Z,936.58
2017-06-29T12:22:16.760Z,936.55
2017-06-29T12:23:16.757Z,936.6
2017-06-29T12:24:16.753Z,936.6
2017-06-29T12:25:16.750Z,936.67
2017-06-29T12:26:16.767Z,936.65
2017-06-29T12:27:16.744Z,936.73
2017-06-29T12:28:16.741Z,936.73
2017-06-29T12:29:16.739Z,936.76
2017-06-29T12:30:16.733Z,936.74
2017-06-29T12:31:16.731Z,936.8